Time;durP1;ratioP1;P1;durP2;ratioP2;P2;SDS_P1;SDS_P2;PMS_P1;PMS_P2;Temp;Humidity;BMP_temperature;BMP_pressure;BME280_temperature;BME280_humidity;BME280_pressure;Samples;Min_cycle;Max_cycle;Signal;HPM_P1;HPM_P2
2023/09/19 00:01:07;;;;;;;12.40;9.50;;;;;;;19.49;73.38;99844.04;108817;276;175023;-73
2023/09/19 00:03:49;;;;;;;10.40;9.30;;;;;;;19.49;73.56;99844.76;108990;276;38669;-73
2023/09/19 00:06:26;;;;;;;11.00;9.80;;;;;;;19.50;73.61;99844.48;108980;276;38152;-74
2023/09/19 00:09:02;;;;;;;11.40;10.30;;;;;;;19.51;73.56;99838.77;108982;276;38658;-77
2023/09/19 00:11:39;;;;;;;12.00;9.70;;;;;;;19.47;73.50;99835.00;109014;276;38351;-77
2023/09/19 00:14:20;;;;;;;10.30;9.30;;;;;;;19.45;73.63;99834.55;109077;276;39855;-75
2023/09/19 00:16:57;;;;;;;11.50;9.90;;;;;;;19.45;73.82;99837.19;108949;276;40155;-75
2023/09/19 00:19:37;;;;;;;12.60;10.90;;;;;;;19.43;73.84;99836.09;109039;276;38176;-73
2023/09/19 00:22:13;;;;;;;11.90;10.30;;;;;;;19.43;73.82;99838.63;108971;276;38296;-75
2023/09/19 00:24:51;;;;;;;12.00;9.80;;;;;;;19.41;73.93;99835.37;108288;276;892999;-75
2023/09/19 00:27:25;;;;;;;11.20;9.60;;;;;;;19.40;74.03;99830.89;108951;276;39785;-77
2023/09/19 00:30:00;;;;;;;10.90;9.50;;;;;;;19.40;74.06;99831.25;108912;276;38404;-75
2023/09/19 00:32:41;;;;;;;11.40;10.10;;;;;;;19.40;74.01;99825.58;108968;276;39927;-74
2023/09/19 00:35:33;;;;;;;11.50;10.30;;;;;;;19.40;74.27;99826.95;108933;276;38191;-74
2023/09/19 00:38:12;;;;;;;13.10;10.70;;;;;;;19.38;74.17;99826.23;108945;276;38902;-74
2023/09/19 00:40:52;;;;;;;12.50;10.10;;;;;;;19.35;74.17;99830.10;108690;269;174832;-74
2023/09/19 00:43:34;;;;;;;10.30;9.20;;;;;;;19.32;74.24;99825.14;108945;276;38910;-74
2023/09/19 00:46:08;;;;;;;11.20;9.90;;;;;;;19.30;74.29;99822.80;109005;276;38148;-77
2023/09/19 00:48:46;;;;;;;12.80;10.70;;;;;;;19.28;74.36;99822.79;108987;276;38171;-76
2023/09/19 00:51:24;;;;;;;11.80;10.70;;;;;;;19.26;74.46;99818.58;108939;276;38139;-74
2023/09/19 00:54:00;;;;;;;11.30;9.80;;;;;;;19.25;74.64;99821.71;109004;276;38230;-74
2023/09/19 00:56:37;;;;;;;12.30;10.00;;;;;;;19.24;74.62;99818.04;108996;276;38401;-75
2023/09/19 00:59:14;;;;;;;11.50;10.30;;;;;;;19.23;74.49;99817.61;109037;276;39533;-77
2023/09/19 01:01:53;;;;;;;13.00;10.00;;;;;;;19.21;74.65;99819.90;108985;276;39434;-74
2023/09/19 01:04:28;;;;;;;11.90;10.50;;;;;;;19.17;74.58;99812.27;108985;276;39499;-76
2023/09/19 01:07:10;;;;;;;13.30;10.90;;;;;;;19.14;74.94;99810.39;109051;276;38380;-73
2023/09/19 01:09:45;;;;;;;10.60;9.60;;;;;;;19.10;75.26;99809.66;108941;276;38774;-75
2023/09/19 01:12:28;;;;;;;12.70;10.10;;;;;;;19.08;75.01;99805.37;108987;276;39033;-76
2023/09/19 01:15:05;;;;;;;12.90;10.70;;;;;;;19.10;75.25;99801.21;108960;276;39324;-75
2023/09/19 01:17:47;;;;;;;13.40;10.30;;;;;;;19.11;75.38;99799.88;108953;276;38877;-74
2023/09/19 01:20:44;;;;;;;11.80;10.30;;;;;;;19.10;75.18;99798.34;108965;276;38914;-76
2023/09/19 01:23:33;;;;;;;12.70;10.80;;;;;;;19.07;75.22;99795.45;108961;276;39436;-75
2023/09/19 01:26:31;;;;;;;12.70;9.90;;;;;;;19.04;75.46;99788.21;109020;276;38478;-75
2023/09/19 01:29:32;;;;;;;11.90;10.20;;;;;;;19.03;75.27;99785.67;108922;276;38619;-74
2023/09/19 01:32:13;;;;;;;12.90;11.60;;;;;;;19.01;75.45;99783.53;109025;276;38590;-74
2023/09/19 01:34:56;;;;;;;12.10;11.00;;;;;;;18.99;75.42;99780.52;108319;276;908430;-73
2023/09/19 01:37:34;;;;;;;12.00;10.60;;;;;;;18.97;75.46;99776.27;109001;276;38169;-74
2023/09/19 01:40:18;;;;;;;12.40;10.70;;;;;;;18.96;75.44;99777.56;108946;276;38261;-74
2023/09/19 01:43:00;;;;;;;11.50;10.40;;;;;;;18.96;75.54;99775.77;109068;276;38255;-74
2023/09/19 01:45:48;;;;;;;14.60;11.10;;;;;;;18.97;75.61;99773.98;109025;276;38517;-73
2023/09/19 01:48:34;;;;;;;12.60;11.30;;;;;;;18.95;75.68;99768.98;108971;276;38197;-74
2023/09/19 01:51:12;;;;;;;12.00;10.80;;;;;;;18.96;75.97;99768.94;108999;276;38730;-76
2023/09/19 01:53:57;;;;;;;12.40;10.50;;;;;;;18.97;75.92;99762.98;108869;276;174884;-76
2023/09/19 01:56:38;;;;;;;14.00;10.40;;;;;;;18.97;75.79;99758.93;108934;276;38629;-75
2023/09/19 01:59:17;;;;;;;14.60;11.00;;;;;;;18.95;75.98;99759.42;108946;276;39641;-76
2023/09/19 02:01:56;;;;;;;12.50;11.00;;;;;;;18.96;75.90;99756.58;108982;276;38293;-74
2023/09/19 02:04:44;;;;;;;12.60;11.10;;;;;;;18.95;75.77;99760.39;108942;276;38262;-74
2023/09/19 02:07:24;;;;;;;11.30;10.20;;;;;;;18.94;75.79;99762.53;108999;276;38533;-74
2023/09/19 02:10:00;;;;;;;12.70;11.00;;;;;;;18.93;75.94;99760.38;108954;276;38287;-73
2023/09/19 02:12:35;;;;;;;12.70;11.40;;;;;;;18.92;75.89;99754.63;109023;276;38168;-73
2023/09/19 02:15:19;;;;;;;12.80;11.40;;;;;;;18.90;75.83;99752.63;109056;276;38493;-73
2023/09/19 02:17:56;;;;;;;11.90;10.50;;;;;;;18.89;75.96;99747.96;109017;276;38897;-75
2023/09/19 02:20:33;;;;;;;11.90;10.30;;;;;;;18.87;76.06;99747.05;109061;276;38149;-74
2023/09/19 02:23:12;;;;;;;11.60;10.40;;;;;;;18.88;76.09;99747.34;109029;276;38269;-74
2023/09/19 02:25:55;;;;;;;12.10;10.90;;;;;;;18.90;75.97;99745.52;108905;276;188045;-73
2023/09/19 02:28:31;;;;;;;12.40;10.70;;;;;;;18.89;75.93;99743.20;109064;276;38620;-74
2023/09/19 02:31:13;;;;;;;12.20;10.90;;;;;;;18.87;76.04;99737.72;108969;276;39314;-74
2023/09/19 02:33:53;;;;;;;13.60;10.50;;;;;;;18.85;75.96;99731.65;109010;276;39185;-74
2023/09/19 02:36:31;;;;;;;12.80;11.40;;;;;;;18.85;75.99;99729.20;109023;276;39107;-76
2023/09/19 02:39:08;;;;;;;12.00;10.80;;;;;;;18.83;76.06;99729.34;109069;276;40327;-73
2023/09/19 02:41:43;;;;;;;13.40;11.20;;;;;;;18.80;76.15;99726.09;108992;276;38140;-73
2023/09/19 02:44:17;;;;;;;12.70;11.00;;;;;;;18.77;76.19;99731.98;108852;276;188360;-75
2023/09/19 02:46:51;;;;;;;12.20;10.70;;;;;;;18.75;76.18;99728.10;109003;276;38201;-74
2023/09/19 02:49:25;;;;;;;10.80;9.80;;;;;;;18.71;76.28;99725.42;108952;276;39004;-74
2023/09/19 02:52:00;;;;;;;12.80;10.40;;;;;;;18.68;76.43;99722.45;109032;276;38163;-73
2023/09/19 02:54:45;;;;;;;12.80;11.60;;;;;;;18.67;76.50;99723.74;108948;276;39399;-74
2023/09/19 02:57:24;;;;;;;13.00;11.00;;;;;;;18.64;76.59;99722.59;108944;276;38233;-73
2023/09/19 03:00:00;;;;;;;12.70;10.60;;;;;;;18.58;76.62;99719.91;108931;276;38142;-74
2023/09/19 03:02:39;;;;;;;11.60;10.30;;;;;;;18.55;76.87;99717.14;109008;276;38654;-74
2023/09/19 03:05:16;;;;;;;11.90;10.60;;;;;;;18.54;77.12;99718.28;109001;276;38375;-75
2023/09/19 03:07:55;;;;;;;13.60;11.10;;;;;;;18.54;77.13;99715.22;109042;276;39401;-74
2023/09/19 03:10:37;;;;;;;13.10;11.00;;;;;;;18.53;77.20;99711.95;109029;276;38312;-74
2023/09/19 03:13:14;;;;;;;12.70;11.30;;;;;;;18.51;77.02;99708.09;108975;276;38916;-76
2023/09/19 03:15:58;;;;;;;12.80;11.00;;;;;;;18.47;77.13;99704.72;108935;276;39500;-74
2023/09/19 03:18:33;;;;;;;12.00;10.50;;;;;;;18.43;77.21;99707.30;109002;276;38159;-75
2023/09/19 03:21:13;;;;;;;11.60;10.40;;;;;;;18.41;77.45;99711.02;108998;276;38524;-76
2023/09/19 03:23:54;;;;;;;12.40;11.10;;;;;;;18.40;77.44;99707.91;108978;276;38765;-76
2023/09/19 03:26:31;;;;;;;12.90;11.30;;;;;;;18.38;77.42;99706.11;108976;276;38268;-74
2023/09/19 03:29:09;;;;;;;13.50;11.10;;;;;;;18.36;77.38;99704.70;108936;276;38297;-73
2023/09/19 03:31:43;;;;;;;14.60;10.60;;;;;;;18.33;77.47;99703.52;109010;276;38200;-74
2023/09/19 03:34:19;;;;;;;11.50;10.30;;;;;;;18.28;77.57;99704.28;108921;276;38818;-74
2023/09/19 03:36:55;;;;;;;12.40;10.20;;;;;;;18.27;77.80;99699.42;108952;276;38728;-73
2023/09/19 03:39:29;;;;;;;14.10;10.80;;;;;;;18.28;77.92;99693.86;108924;276;38171;-74
2023/09/19 03:42:07;;;;;;;13.20;11.30;;;;;;;18.29;77.90;99694.89;108992;276;38178;-75
2023/09/19 03:44:41;;;;;;;13.20;11.00;;;;;;;18.26;77.92;99689.96;109012;276;38227;-75
2023/09/19 03:47:22;;;;;;;13.30;10.80;;;;;;;18.25;78.19;99689.36;109034;276;38858;-75
2023/09/19 03:49:58;;;;;;;13.00;10.50;;;;;;;18.22;78.31;99692.80;109008;276;38664;-73
2023/09/19 03:52:32;;;;;;;11.80;10.40;;;;;;;18.18;78.37;99690.66;109060;276;38128;-77
2023/09/19 03:55:10;;;;;;;14.30;11.10;;;;;;;18.19;78.65;99691.98;108949;276;39161;-74
2023/09/19 03:57:48;;;;;;;12.60;11.30;;;;;;;18.21;78.68;99693.02;109021;276;38215;-73
2023/09/19 04:00:24;;;;;;;12.50;11.20;;;;;;;18.22;78.74;99688.20;108955;276;39307;-75
2023/09/19 04:03:07;;;;;;;11.80;10.60;;;;;;;18.22;78.82;99684.27;109022;276;40649;-73
2023/09/19 04:05:46;;;;;;;13.50;10.70;;;;;;;18.26;78.89;99679.05;108935;276;38780;-75
2023/09/19 04:08:20;;;;;;;13.70;10.90;;;;;;;18.30;78.92;99675.16;108958;276;38642;-77
2023/09/19 04:10:56;;;;;;;12.10;10.70;;;;;;;18.34;78.88;99670.11;108958;276;38892;-74
2023/09/19 04:13:30;;;;;;;15.10;11.20;;;;;;;18.39;78.84;99665.13;108981;276;39211;-73
2023/09/19 04:16:13;;;;;;;12.70;11.40;;;;;;;18.41;78.47;99661.40;108952;276;39618;-73
2023/09/19 04:19:04;;;;;;;13.50;10.90;;;;;;;18.41;78.43;99661.41;108981;276;38449;-75
2023/09/19 04:21:48;;;;;;;10.70;9.60;;;;;;;18.40;78.42;99661.30;108960;276;38809;-74
2023/09/19 04:24:28;;;;;;;12.30;10.30;;;;;;;18.41;78.33;99663.54;108913;276;38267;-74
2023/09/19 04:27:09;;;;;;;13.40;10.70;;;;;;;18.40;78.42;99663.08;109041;276;39916;-73
2023/09/19 04:29:47;;;;;;;12.70;11.30;;;;;;;18.39;78.30;99664.23;109013;276;39133;-74
2023/09/19 04:32:22;;;;;;;12.50;10.50;;;;;;;18.37;78.30;99660.48;109013;276;39389;-75
2023/09/19 04:35:00;;;;;;;11.20;10.10;;;;;;;18.36;78.35;99658.23;108861;276;174927;-74
2023/09/19 04:37:35;;;;;;;11.30;9.90;;;;;;;18.36;78.44;99653.33;109038;276;38282;-73
2023/09/19 04:40:22;;;;;;;12.00;10.80;;;;;;;18.37;78.57;99654.48;109016;276;38259;-75
2023/09/19 04:43:03;;;;;;;12.80;11.10;;;;;;;18.37;78.62;99653.82;108957;276;38244;-74
2023/09/19 04:45:39;;;;;;;12.80;11.30;;;;;;;18.34;78.63;99654.90;108960;276;39348;-76
2023/09/19 04:48:16;;;;;;;11.90;10.60;;;;;;;18.32;78.65;99654.00;108987;276;39052;-78
2023/09/19 04:51:01;;;;;;;11.30;10.10;;;;;;;18.34;78.56;99654.63;108972;276;38328;-76
2023/09/19 04:53:38;;;;;;;11.70;10.20;;;;;;;18.36;78.90;99656.20;108906;276;38144;-75
2023/09/19 04:56:12;;;;;;;12.70;11.30;;;;;;;18.36;78.93;99655.62;108944;276;38589;-75
2023/09/19 04:58:49;;;;;;;13.60;11.00;;;;;;;18.38;78.93;99657.58;108909;276;39698;-78
2023/09/19 05:01:23;;;;;;;12.80;10.70;;;;;;;18.41;78.94;99653.77;108941;276;39250;-75
2023/09/19 05:03:59;;;;;;;13.30;10.70;;;;;;;18.44;78.84;99652.88;108899;276;38789;-75
2023/09/19 05:06:39;;;;;;;12.90;10.20;;;;;;;18.47;78.95;99651.55;108958;276;38316;-76
2023/09/19 05:09:19;;;;;;;14.10;11.00;;;;;;;18.55;79.16;99647.73;108930;276;38147;-74
2023/09/19 05:11:54;;;;;;;12.00;10.60;;;;;;;18.66;79.03;99646.63;108956;276;38278;-74
2023/09/19 05:14:29;;;;;;;12.60;10.70;;;;;;;18.76;78.97;99647.55;108938;276;38370;-76
2023/09/19 05:17:06;;;;;;;13.50;10.40;;;;;;;18.84;78.85;99642.86;108932;276;39344;-74
2023/09/19 05:19:48;;;;;;;13.00;10.10;;;;;;;18.91;78.55;99644.71;108972;276;38441;-73
2023/09/19 05:22:21;;;;;;;11.70;10.30;;;;;;;19.00;78.43;99645.95;109045;276;39404;-73
2023/09/19 05:24:57;;;;;;;14.20;10.60;;;;;;;19.06;78.14;99642.59;109020;276;39625;-77
2023/09/19 05:27:31;;;;;;;13.60;10.40;;;;;;;19.12;77.85;99640.16;109076;276;39512;-74
2023/09/19 05:30:07;;;;;;;10.40;9.30;;;;;;;19.17;77.66;99644.69;109017;276;39635;-74
2023/09/19 05:32:41;;;;;;;11.20;9.90;;;;;;;19.21;77.52;99641.98;108959;276;39184;-74
2023/09/19 05:35:17;;;;;;;11.60;10.30;;;;;;;19.27;77.41;99644.33;108937;276;38594;-77
2023/09/19 05:37:53;;;;;;;14.30;10.90;;;;;;;19.32;77.30;99642.48;108956;276;38181;-75
2023/09/19 05:40:29;;;;;;;11.90;10.30;;;;;;;19.38;77.06;99643.24;108870;276;174880;-77
2023/09/19 05:43:06;;;;;;;12.70;10.60;;;;;;;19.39;76.82;99643.13;109011;276;38172;-74
2023/09/19 05:45:40;;;;;;;12.00;10.00;;;;;;;19.41;76.50;99638.86;108942;276;38210;-75
2023/09/19 05:48:20;;;;;;;14.00;9.90;;;;;;;19.44;76.53;99654.58;108985;276;38315;-74
2023/09/19 05:51:01;;;;;;;15.60;10.50;;;;;;;19.46;76.46;99646.77;109002;276;38153;-74
2023/09/19 05:53:43;;;;;;;13.30;10.90;;;;;;;19.52;76.49;99648.51;108967;276;38812;-74
2023/09/19 05:56:21;;;;;;;13.40;10.40;;;;;;;19.57;76.51;99656.21;108994;276;38901;-75
2023/09/19 05:58:59;;;;;;;12.30;9.70;;;;;;;19.66;76.51;99659.73;109000;276;38712;-72
2023/09/19 06:01:40;;;;;;;13.00;10.40;;;;;;;19.75;76.68;99659.25;109026;276;38256;-76
2023/09/19 06:04:27;;;;;;;13.70;10.30;;;;;;;19.84;76.31;99665.36;109033;276;39342;-76
2023/09/19 06:07:06;;;;;;;14.10;10.40;;;;;;;19.88;76.06;99662.58;108967;276;39811;-74
2023/09/19 06:09:43;;;;;;;14.00;10.50;;;;;;;19.88;75.79;99668.09;109051;276;38442;-74
2023/09/19 06:12:18;;;;;;;12.10;10.00;;;;;;;19.88;75.63;99669.35;109037;276;39357;-74
2023/09/19 06:14:55;;;;;;;12.40;9.80;;;;;;;19.89;75.62;99665.13;108948;276;39498;-73
2023/09/19 06:17:37;;;;;;;11.60;10.20;;;;;;;19.92;75.57;99663.44;109067;276;39336;-75
2023/09/19 06:20:19;;;;;;;14.90;10.60;;;;;;;19.94;75.21;99665.77;108998;276;38473;-74
2023/09/19 06:23:01;;;;;;;11.70;9.70;;;;;;;19.98;75.33;99667.73;109062;276;38177;-76
2023/09/19 06:25:57;;;;;;;13.50;10.70;;;;;;;20.02;75.24;99669.45;108984;276;39403;-74
2023/09/19 06:28:37;;;;;;;12.30;10.40;;;;;;;20.10;75.47;99666.67;109033;276;38976;-75
2023/09/19 06:31:22;;;;;;;11.40;9.70;;;;;;;20.20;75.52;99668.10;109084;276;39812;-75
2023/09/19 06:33:59;;;;;;;12.50;10.10;;;;;;;20.28;75.04;99670.16;108968;276;39518;-73
2023/09/19 06:36:37;;;;;;;14.40;10.50;;;;;;;20.37;74.87;99675.73;108922;276;38172;-74
2023/09/19 06:39:14;;;;;;;10.90;9.80;;;;;;;20.42;74.64;99676.18;108948;276;38303;-74
2023/09/19 06:41:54;;;;;;;11.90;10.30;;;;;;;20.48;74.47;99674.56;108951;276;38764;-75
2023/09/19 06:44:31;;;;;;;12.60;10.40;;;;;;;20.57;74.19;99676.24;108979;276;38298;-75
2023/09/19 06:47:11;;;;;;;11.70;10.50;;;;;;;20.64;73.83;99678.69;109031;276;39339;-74
2023/09/19 06:49:55;;;;;;;12.20;10.40;;;;;;;20.71;73.81;99681.44;108992;276;40291;-74
2023/09/19 06:52:34;;;;;;;12.60;9.30;;;;;;;20.81;73.87;99678.70;109093;276;39673;-77
2023/09/19 06:55:16;;;;;;;10.40;9.40;;;;;;;20.99;73.96;99678.45;108984;276;38250;-77
2023/09/19 06:57:54;;;;;;;12.20;9.70;;;;;;;21.25;74.12;99679.93;108503;276;640138;-74
2023/09/19 07:00:36;;;;;;;12.50;10.30;;;;;;;21.54;73.43;99682.18;109034;276;39344;-74
2023/09/19 07:03:16;;;;;;;11.30;10.10;;;;;;;21.80;71.99;99684.84;109014;276;38631;-73
2023/09/19 07:05:58;;;;;;;13.70;10.70;;;;;;;21.96;70.95;99682.64;109015;276;38181;-73
2023/09/19 07:08:38;;;;;;;14.90;11.20;;;;;;;22.17;70.65;99688.80;108991;276;39388;-71
2023/09/19 07:11:15;;;;;;;12.10;10.90;;;;;;;22.35;70.00;99685.63;108960;276;38822;-72
2023/09/19 07:13:51;;;;;;;14.70;11.20;;;;;;;22.47;68.67;99685.87;109002;276;38253;-72
2023/09/19 07:16:29;;;;;;;13.40;11.50;;;;;;;22.51;68.17;99686.52;108993;276;38114;-73
2023/09/19 07:19:04;;;;;;;13.10;11.70;;;;;;;22.51;68.02;99690.56;108954;276;39355;-72
2023/09/19 07:21:44;;;;;;;17.30;12.40;;;;;;;22.53;67.67;99695.77;109050;276;39377;-71
2023/09/19 07:24:22;;;;;;;14.80;11.60;;;;;;;22.56;67.46;99699.55;109045;276;39843;-71
2023/09/19 07:27:00;;;;;;;13.50;12.10;;;;;;;22.64;67.39;99704.75;109063;276;38139;-74
2023/09/19 07:29:44;;;;;;;13.40;11.60;;;;;;;22.79;67.55;99704.72;108992;276;38442;-73
2023/09/19 07:32:19;;;;;;;13.20;11.70;;;;;;;22.94;67.39;99702.92;109026;276;39341;-73
2023/09/19 07:34:58;;;;;;;14.40;12.20;;;;;;;23.08;66.89;99710.48;108992;276;38621;-75
2023/09/19 07:37:36;;;;;;;15.10;12.20;;;;;;;23.24;66.26;99708.80;108958;276;38356;-76
2023/09/19 07:40:18;;;;;;;13.40;12.10;;;;;;;23.33;65.64;99713.69;108908;276;38347;-74
2023/09/19 07:42:53;;;;;;;14.40;12.40;;;;;;;23.35;65.28;99716.82;108973;276;38367;-75
2023/09/19 07:45:29;;;;;;;13.70;12.10;;;;;;;23.30;64.81;99718.22;108976;276;38170;-77
2023/09/19 07:48:14;;;;;;;13.90;11.90;;;;;;;23.22;65.00;99720.12;108979;276;38615;-74
2023/09/19 07:50:51;;;;;;;14.10;12.30;;;;;;;23.19;64.87;99727.25;108988;276;38473;-75
2023/09/19 07:53:30;;;;;;;13.40;12.10;;;;;;;23.16;65.09;99730.88;108987;276;38385;-75
2023/09/19 07:56:09;;;;;;;14.80;12.50;;;;;;;23.17;64.90;99736.50;108912;276;188170;-75
2023/09/19 07:58:44;;;;;;;;;;;;;;;23.17;64.88;99738.98;109064;276;38236;-76
2023/09/19 08:01:23;;;;;;;13.10;11.60;;;;;;;23.10;64.89;99740.19;109071;276;38358;-75
2023/09/19 08:03:58;;;;;;;13.30;11.90;;;;;;;23.06;64.84;99738.67;109030;276;38301;-75
2023/09/19 08:06:33;;;;;;;14.50;13.10;;;;;;;23.02;64.99;99741.38;109045;276;38259;-77
2023/09/19 08:09:12;;;;;;;14.20;12.70;;;;;;;22.96;64.81;99742.92;109018;276;38356;-77
2023/09/19 08:11:47;;;;;;;14.00;12.50;;;;;;;22.89;65.04;99737.83;108971;276;38384;-74
2023/09/19 08:14:29;;;;;;;12.40;11.20;;;;;;;22.84;65.20;99740.46;108912;276;38289;-74
2023/09/19 08:17:05;;;;;;;11.70;10.60;;;;;;;22.81;65.08;99740.83;108964;276;38793;-75
2023/09/19 08:19:46;;;;;;;11.80;10.30;;;;;;;22.74;64.82;99742.39;108839;276;174682;-75
2023/09/19 08:22:23;;;;;;;10.70;9.70;;;;;;;22.67;64.94;99756.22;109014;276;38481;-75
2023/09/19 08:25:04;;;;;;;12.40;11.10;;;;;;;22.58;65.01;99759.98;109003;276;38426;-75
2023/09/19 08:27:40;;;;;;;14.10;10.40;;;;;;;22.46;65.17;99772.17;108978;276;38495;-74
2023/09/19 08:30:20;;;;;;;11.50;10.40;;;;;;;22.35;65.37;99772.83;108969;276;38874;-74
2023/09/19 08:32:59;;;;;;;11.50;10.30;;;;;;;22.28;65.78;99772.74;109015;276;38864;-75
2023/09/19 08:35:36;;;;;;;11.20;10.10;;;;;;;22.27;66.10;99776.48;109054;276;38239;-75
2023/09/19 08:38:14;;;;;;;11.50;10.30;;;;;;;22.27;66.26;99773.09;109009;276;38144;-74
2023/09/19 08:40:54;;;;;;;11.40;9.80;;;;;;;22.26;66.30;99768.23;109107;276;41281;-74
2023/09/19 08:43:28;;;;;;;10.40;9.00;;;;;;;22.25;66.45;99769.51;108903;276;39398;-77
2023/09/19 08:46:08;;;;;;;10.80;9.60;;;;;;;22.23;66.20;99770.14;108925;276;38476;-76
2023/09/19 08:48:49;;;;;;;12.90;10.70;;;;;;;22.18;66.28;99766.99;108905;276;38149;-74
2023/09/19 08:51:35;;;;;;;12.30;11.00;;;;;;;22.08;66.47;99758.20;108946;276;38193;-74
2023/09/19 08:54:22;;;;;;;12.90;10.40;;;;;;;22.00;66.69;99756.99;108958;276;39548;-76
2023/09/19 08:56:56;;;;;;;14.90;10.80;;;;;;;21.93;67.27;99757.27;108965;276;38758;-76
2023/09/19 08:59:35;;;;;;;12.90;9.90;;;;;;;21.86;68.14;99756.90;108876;276;174554;-75
2023/09/19 09:02:14;;;;;;;11.60;9.30;;;;;;;21.77;69.02;99759.19;109016;276;38296;-74
2023/09/19 09:04:51;;;;;;;11.30;9.60;;;;;;;21.69;69.73;99755.14;109036;276;38747;-74
2023/09/19 09:07:27;;;;;;;12.10;9.70;;;;;;;21.59;70.44;99763.17;109010;276;38361;-74
2023/09/19 09:10:02;;;;;;;21.30;12.20;;;;;;;21.49;70.81;99763.57;108978;276;39437;-72
2023/09/19 09:12:39;;;;;;;17.70;10.40;;;;;;;21.33;71.74;99757.30;108967;276;38971;-72
2023/09/19 09:15:16;;;;;;;17.30;10.40;;;;;;;21.11;72.39;99759.81;108781;276;174742;-72
2023/09/19 09:17:53;;;;;;;17.80;9.60;;;;;;;20.95;73.49;99769.75;108934;276;38478;-73
2023/09/19 09:20:27;;;;;;;14.30;9.70;;;;;;;20.88;74.40;99781.75;108927;276;38720;-73
2023/09/19 09:23:04;;;;;;;10.80;9.60;;;;;;;20.77;74.97;99789.27;108960;276;39406;-74
2023/09/19 09:26:02;;;;;;;12.70;9.90;;;;;;;20.70;75.70;99798.84;108971;276;38265;-76
2023/09/19 09:28:45;;;;;;;15.50;9.50;;;;;;;20.63;76.43;99813.42;108965;276;38143;-76
2023/09/19 09:31:36;;;;;;;12.80;9.40;;;;;;;20.55;76.74;99819.95;108976;276;38224;-76
2023/09/19 09:34:23;;;;;;;13.40;9.50;;;;;;;20.45;77.36;99831.82;109079;276;38491;-75
2023/09/19 09:37:04;;;;;;;12.90;9.90;;;;;;;20.40;78.22;99836.20;108916;276;39214;-75
2023/09/19 09:39:43;;;;;;;16.70;10.00;;;;;;;20.30;78.46;99833.65;108910;276;38262;-72
2023/09/19 09:42:19;;;;;;;13.40;9.90;;;;;;;20.24;79.18;99827.25;108925;276;39882;-73
2023/09/19 09:45:01;;;;;;;11.60;9.40;;;;;;;20.20;79.62;99823.38;108903;276;38245;-74
2023/09/19 09:47:55;;;;;;;14.80;9.90;;;;;;;20.16;80.27;99823.36;108969;276;38169;-75
2023/09/19 09:50:44;;;;;;;14.50;10.10;;;;;;;20.14;80.87;99826.20;108936;276;39530;-77
2023/09/19 09:53:32;;;;;;;10.00;9.00;;;;;;;20.14;81.48;99834.70;108906;276;39870;-73
2023/09/19 09:56:14;;;;;;;9.20;7.90;;;;;;;20.15;81.81;99840.69;108915;276;38169;-73
2023/09/19 09:59:17;;;;;;;9.40;7.70;;;;;;;20.16;82.42;99841.81;108925;276;38260;-75
2023/09/19 10:01:53;;;;;;;8.90;6.40;;;;;;;20.16;82.47;99840.58;108931;276;39621;-74
2023/09/19 10:04:36;;;;;;;8.60;7.10;;;;;;;20.19;82.89;99837.46;108901;276;38388;-74
2023/09/19 10:07:26;;;;;;;8.20;7.30;;;;;;;20.23;83.24;99836.23;109014;276;38309;-77
2023/09/19 10:10:21;;;;;;;6.20;5.60;;;;;;;20.26;83.70;99833.48;108989;276;38131;-77
2023/09/19 10:13:02;;;;;;;7.20;5.50;;;;;;;20.34;83.96;99825.86;108943;276;38143;-76
2023/09/19 10:15:37;;;;;;;6.40;5.40;;;;;;;20.40;83.90;99822.91;108965;276;39760;-74
2023/09/19 10:18:17;;;;;;;8.60;6.10;;;;;;;20.45;84.15;99818.20;108947;276;38172;-72
2023/09/19 10:21:08;;;;;;;6.70;6.10;;;;;;;20.47;84.47;99817.99;108955;276;38369;-73
2023/09/19 10:23:45;;;;;;;6.40;5.40;;;;;;;20.51;84.44;99823.83;109040;276;38385;-73
2023/09/19 10:26:23;;;;;;;6.60;4.50;;;;;;;20.56;84.41;99831.77;108980;276;38451;-73
2023/09/19 10:28:57;;;;;;;;;;;;;;;20.62;84.66;99837.43;108921;276;38165;-72
2023/09/19 10:31:33;;;;;;;5.00;4.50;;;;;;;20.63;84.85;99832.75;108991;276;39620;-74
2023/09/19 10:34:09;;;;;;;6.00;5.10;;;;;;;20.69;84.69;99829.60;108914;276;38508;-74
2023/09/19 10:36:45;;;;;;;5.40;4.90;;;;;;;20.75;84.99;99832.92;108833;276;174319;-76
2023/09/19 10:39:20;;;;;;;5.50;4.80;;;;;;;20.82;84.81;99835.63;108942;276;38289;-76
2023/09/19 10:42:17;;;;;;;5.40;4.90;;;;;;;20.87;84.67;99837.98;108958;276;38311;-77
2023/09/19 10:45:07;;;;;;;5.30;4.60;;;;;;;20.91;84.66;99843.35;108865;276;174774;-76
2023/09/19 10:47:49;;;;;;;5.50;4.00;;;;;;;20.96;84.44;99843.27;109092;276;39335;-75
2023/09/19 10:50:26;;;;;;;5.70;4.20;;;;;;;21.01;84.67;99844.38;108898;276;40127;-75
2023/09/19 10:53:04;;;;;;;5.00;4.60;;;;;;;21.05;84.63;99840.89;108944;276;40117;-74
2023/09/19 10:55:39;;;;;;;5.50;5.00;;;;;;;21.06;84.46;99844.27;108939;276;40075;-74
2023/09/19 10:58:28;;;;;;;4.40;3.90;;;;;;;21.09;84.74;99852.73;109013;276;39395;-77
2023/09/19 11:01:12;;;;;;;4.70;4.10;;;;;;;21.11;84.62;99859.52;109026;276;38476;-75
2023/09/19 11:03:48;;;;;;;4.40;4.00;;;;;;;21.13;84.67;99861.92;108957;276;39491;-73
2023/09/19 11:06:24;;;;;;;6.30;4.50;;;;;;;21.18;84.75;99859.77;108978;276;39339;-76
2023/09/19 11:09:21;;;;;;;4.50;4.00;;;;;;;21.20;84.65;99856.22;108983;276;38170;-75
2023/09/19 11:12:02;;;;;;;5.30;4.80;;;;;;;21.21;84.95;99858.04;109002;276;38285;-75
2023/09/19 11:14:52;;;;;;;4.60;3.80;;;;;;;21.27;85.05;99855.04;108966;276;38535;-75
2023/09/19 11:17:49;;;;;;;5.30;4.10;;;;;;;21.29;84.50;99856.41;108941;276;38277;-76
2023/09/19 11:20:51;;;;;;;4.90;4.50;;;;;;;21.31;84.84;99857.70;108934;276;38168;-76
2023/09/19 11:23:28;;;;;;;6.60;4.50;;;;;;;21.32;85.09;99856.20;108955;276;38527;-77
2023/09/19 11:26:02;;;;;;;10.30;6.00;;;;;;;21.37;84.69;99851.63;109039;276;38188;-74
2023/09/19 11:28:38;;;;;;;7.00;5.50;;;;;;;21.39;84.13;99848.81;108925;276;38157;-76
2023/09/19 11:31:56;;;;;;;9.80;6.70;;;;;;;21.44;84.36;99850.80;109012;276;38158;-75
2023/09/19 11:34:55;;;;;;;13.90;7.40;;;;;;;21.48;84.61;99848.86;108968;276;38378;-75
2023/09/19 11:38:11;;;;;;;9.20;6.50;;;;;;;21.50;84.43;99855.65;109024;276;38574;-75
2023/09/19 11:41:09;;;;;;;7.50;5.40;;;;;;;21.45;83.88;99856.83;109024;276;38553;-75
2023/09/19 11:43:50;;;;;;;5.00;4.50;;;;;;;21.44;84.12;99860.43;108807;278;174412;-75
2023/09/19 11:46:56;;;;;;;5.90;5.20;;;;;;;21.44;84.03;99857.58;108823;278;174728;-75
2023/09/19 11:49:38;;;;;;;6.70;5.20;;;;;;;21.42;84.09;99862.87;108942;278;39599;-75
2023/09/19 11:52:13;;;;;;;5.40;4.70;;;;;;;21.42;84.62;99862.55;108973;278;38178;-75
2023/09/19 11:54:51;;;;;;;6.10;5.20;;;;;;;21.44;84.41;99866.52;108895;278;38882;-72
2023/09/19 11:57:26;;;;;;;5.40;4.90;;;;;;;21.43;84.23;99860.89;108875;278;39659;-72
2023/09/19 12:00:04;;;;;;;6.10;5.60;;;;;;;21.45;84.52;99863.33;108951;278;38442;-76
2023/09/19 12:02:41;;;;;;;;;;;;;;;21.52;84.97;99869.27;108987;278;39319;-77
2023/09/19 12:05:31;;;;;;;7.20;5.50;;;;;;;21.49;85.19;99870.92;109019;271;38402;-75
2023/09/19 12:08:09;;;;;;;5.80;5.30;;;;;;;21.51;84.85;99875.02;109041;278;38730;-75
2023/09/19 12:10:56;;;;;;;5.60;5.10;;;;;;;21.53;84.78;99872.55;108978;278;39219;-75
2023/09/19 12:13:38;;;;;;;7.20;5.70;;;;;;;21.61;84.59;99874.48;108949;278;38224;-74
2023/09/19 12:16:25;;;;;;;7.50;5.90;;;;;;;21.64;84.43;99877.73;109021;278;38583;-75
2023/09/19 12:19:18;;;;;;;5.70;5.00;;;;;;;21.69;84.55;99882.15;108922;278;39634;-75
2023/09/19 12:22:04;;;;;;;6.40;5.70;;;;;;;21.68;83.89;99887.66;108946;278;38666;-74